Terminal Aerodrome Forecast
Issued by NWS

Current Version | Previous Version | Text Only | Print | Product List | Glossary Off
Versions: 1 2 3 4 5 6 7 8 9 10 11 12 13 14 15 16 17 18 19 20 21 22 23 24 25 26 27 28 29 30 31 32 33 34 35 36 37 38

000
FTUS41 KRNK 150527
TAFLWB
TAF
KLWB 150527Z 1506/1606 00000KT 1/4SM FG VV001
      TEMPO 1507/1511 3SM BR SCT001 BKN007
     FM151300 26003KT 6SM BR SCT003 OVC015
     FM151500 27003KT P6SM BKN025
     FM151800 28006KT P6SM BKN045
     FM160000 VRB03KT P6SM SCT040 BKN100=

USA.gov is the U.S. government's official web portal to all federal, state and local government web resources and services.